Time;durP1;ratioP1;P1;durP2;ratioP2;P2;SDS_P1;SDS_P2;PMS_P1;PMS_P2;Temp;Humidity;BMP_temperature;BMP_pressure;BME280_temperature;BME280_humidity;BME280_pressure;Samples;Min_cycle;Max_cycle;Signal;HPM_P1;HPM_P2
2022/06/27 00:01:49;;;;;;;;;;;;;;;15.21;100.00;91231.59;5032526;28;19928;-64
2022/06/27 00:04:15;;;;;;;;;;;;;;;15.19;100.00;91231.16;5032206;28;19975;-64
2022/06/27 00:06:40;;;;;;;;;;;;;;;15.19;100.00;91236.50;5032108;28;20012;-64
2022/06/27 00:09:06;;;;;;;;;;;;;;;15.20;100.00;91230.03;5032560;28;19975;-64
2022/06/27 00:11:31;;;;;;;;;;;;;;;15.19;100.00;91227.69;5031990;28;19917;-64
2022/06/27 00:13:57;;;;;;;;;;;;;;;15.15;100.00;91224.88;5031787;28;20375;-64
2022/06/27 00:16:22;;;;;;;;;;;;;;;15.16;100.00;91236.38;5031788;28;20377;-64
2022/06/27 00:18:47;;;;;;;;;;;;;;;15.09;100.00;91236.91;5031990;28;19921;-64
2022/06/27 00:21:12;;;;;;;;;;;;;;;15.03;100.00;91237.44;5031819;28;20403;-64
2022/06/27 00:23:38;;;;;;;;;;;;;;;14.98;100.00;91239.19;5031867;28;20497;-64
2022/06/27 00:26:03;;;;;;;;;;;;;;;14.93;100.00;91238.59;5031728;28;20379;-64
2022/06/27 00:28:29;;;;;;;;;;;;;;;14.84;100.00;91233.34;5031125;28;19925;-64
2022/06/27 00:30:54;;;;;;;;;;;;;;;14.75;100.00;91231.81;5031996;28;20643;-63
2022/06/27 00:33:19;;;;;;;;;;;;;;;14.66;100.00;91224.59;5031694;28;19956;-64
2022/06/27 00:35:45;;;;;;;;;;;;;;;14.60;100.00;91231.28;5031501;28;19971;-64
2022/06/27 00:38:10;;;;;;;;;;;;;;;14.55;100.00;91234.16;5031596;28;20382;-64
2022/06/27 00:40:35;;;;;;;;;;;;;;;14.61;100.00;91232.84;5031592;28;20379;-64
2022/06/27 00:43:00;;;;;;;;;;;;;;;14.60;100.00;91233.94;5031451;28;20397;-64
2022/06/27 00:45:26;;;;;;;;;;;;;;;14.63;100.00;91227.94;5031518;28;19928;-64
2022/06/27 00:47:51;;;;;;;;;;;;;;;14.66;100.00;91221.16;5031406;28;20375;-63
2022/06/27 00:50:16;;;;;;;;;;;;;;;14.64;100.00;91216.13;5031557;28;19917;-63
2022/06/27 00:52:42;;;;;;;;;;;;;;;14.64;100.00;91220.69;5031701;28;19913;-64
2022/06/27 00:55:08;;;;;;;;;;;;;;;14.69;100.00;91215.16;5031328;28;20401;-63
2022/06/27 00:57:34;;;;;;;;;;;;;;;14.62;100.00;91210.31;5031463;28;19917;-64
2022/06/27 00:59:59;;;;;;;;;;;;;;;14.63;100.00;91219.13;5031459;28;19913;-64
2022/06/27 01:02:24;;;;;;;;;;;;;;;14.58;100.00;91205.94;5031259;28;19917;-64
2022/06/27 01:04:50;;;;;;;;;;;;;;;14.56;100.00;91211.63;5031144;28;20007;-64
2022/06/27 01:07:15;;;;;;;;;;;;;;;14.53;100.00;91214.94;5031186;28;19956;-64
2022/06/27 01:09:41;;;;;;;;;;;;;;;14.48;100.00;91209.00;5031236;28;20000;-65
2022/06/27 01:12:07;;;;;;;;;;;;;;;14.43;100.00;91204.59;5031334;28;19913;-64
2022/06/27 01:14:32;;;;;;;;;;;;;;;14.38;100.00;91202.88;5031334;28;19917;-65
2022/06/27 01:16:58;;;;;;;;;;;;;;;14.35;100.00;91211.53;5031548;28;19920;-64
2022/06/27 01:19:23;;;;;;;;;;;;;;;14.41;100.00;91208.69;5031767;28;19913;-64
2022/06/27 01:21:50;;;;;;;;;;;;;;;14.43;100.00;91209.94;5031503;28;20299;-65
2022/06/27 01:24:16;;;;;;;;;;;;;;;14.44;100.00;91213.44;5031517;28;19974;-65
2022/06/27 01:26:42;;;;;;;;;;;;;;;14.37;100.00;91213.94;5031369;28;19913;-64
2022/06/27 01:29:08;;;;;;;;;;;;;;;14.29;100.00;91209.38;5031689;28;19920;-63
2022/06/27 01:31:35;;;;;;;;;;;;;;;14.20;100.00;91211.31;5013656;28;19913;-64
2022/06/27 01:34:00;;;;;;;;;;;;;;;14.16;100.00;91215.75;5031284;28;19917;-64
2022/06/27 01:36:44;;;;;;;;;;;;;;;14.17;100.00;91218.09;5031530;28;19920;-64
2022/06/27 01:39:10;;;;;;;;;;;;;;;14.13;100.00;91211.84;5031806;28;19970;-64
2022/06/27 01:41:39;;;;;;;;;;;;;;;14.10;100.00;91212.50;5035222;28;20379;-64
2022/06/27 01:44:05;;;;;;;;;;;;;;;14.05;100.00;91216.13;5035122;28;19917;-64
2022/06/27 01:46:40;;;;;;;;;;;;;;;14.06;100.00;91212.34;5035086;28;20392;-64
2022/06/27 01:49:06;;;;;;;;;;;;;;;14.09;100.00;91213.59;5035381;28;19913;-65
2022/06/27 01:51:32;;;;;;;;;;;;;;;14.07;100.00;91215.81;5035032;28;19920;-64
2022/06/27 01:53:57;;;;;;;;;;;;;;;14.08;100.00;91220.84;5034796;28;19964;-65
2022/06/27 01:56:22;;;;;;;;;;;;;;;14.06;100.00;91223.06;5034837;28;19913;-64
2022/06/27 01:58:48;;;;;;;;;;;;;;;14.08;100.00;91228.88;5034847;28;19916;-64
2022/06/27 02:01:13;;;;;;;;;;;;;;;14.11;100.00;91222.09;5034866;28;19913;-64
2022/06/27 02:03:39;;;;;;;;;;;;;;;14.22;100.00;91225.19;5034714;28;19916;-64
2022/06/27 02:06:04;;;;;;;;;;;;;;;14.28;100.00;91226.56;5020073;28;20621;-65
2022/06/27 02:08:31;;;;;;;;;;;;;;;14.32;100.00;91224.78;5014904;28;19929;-64
2022/06/27 02:10:57;;;;;;;;;;;;;;;14.26;100.00;91224.22;5014909;28;19953;-64
2022/06/27 02:13:23;;;;;;;;;;;;;;;14.30;100.00;91219.78;5014871;28;20398;-64
2022/06/27 02:16:05;;;;;;;;;;;;;;;14.33;100.00;91226.38;5014759;28;20328;-64
2022/06/27 02:18:31;;;;;;;;;;;;;;;14.36;100.00;91223.06;5014757;28;19928;-64
2022/06/27 02:20:57;;;;;;;;;;;;;;;14.35;100.00;91229.50;5014835;28;19944;-63
2022/06/27 02:23:22;;;;;;;;;;;;;;;14.31;100.00;91228.59;5014639;28;20375;-64
2022/06/27 02:25:48;;;;;;;;;;;;;;;14.28;100.00;91227.34;5014910;28;19949;-64
2022/06/27 02:28:14;;;;;;;;;;;;;;;14.20;100.00;91227.38;5014604;28;20380;-64
2022/06/27 02:30:39;;;;;;;;;;;;;;;14.16;100.00;91223.78;5014847;28;20318;-64
2022/06/27 02:33:05;;;;;;;;;;;;;;;14.15;100.00;91233.69;5014473;28;19925;-64
2022/06/27 02:35:31;;;;;;;;;;;;;;;14.11;100.00;91237.34;5014404;28;19917;-64
2022/06/27 02:37:57;;;;;;;;;;;;;;;14.11;100.00;91240.81;5014362;28;20379;-64
2022/06/27 02:40:22;;;;;;;;;;;;;;;14.08;100.00;91250.28;5014293;28;19918;-65
2022/06/27 02:42:49;;;;;;;;;;;;;;;14.12;100.00;91247.72;5014179;28;19933;-65
2022/06/27 02:45:15;;;;;;;;;;;;;;;14.09;100.00;91240.34;5014256;28;19967;-64
2022/06/27 02:47:43;;;;;;;;;;;;;;;14.13;100.00;91248.50;5014445;28;20295;-65
2022/06/27 02:50:08;;;;;;;;;;;;;;;14.14;100.00;91253.53;5014188;28;19917;-64
2022/06/27 02:52:36;;;;;;;;;;;;;;;14.14;100.00;91250.84;5013049;28;19924;-64
2022/06/27 02:55:01;;;;;;;;;;;;;;;14.16;100.00;91255.88;5014033;28;19917;-64
2022/06/27 02:57:39;;;;;;;;;;;;;;;14.18;100.00;91251.00;5014149;28;19964;-64
2022/06/27 03:00:07;;;;;;;;;;;;;;;14.24;100.00;91255.06;5014000;28;20019;-64
2022/06/27 03:02:33;;;;;;;;;;;;;;;14.30;100.00;91261.81;5014095;28;19924;-63
2022/06/27 03:04:58;;;;;;;;;;;;;;;14.24;100.00;91261.22;5013742;28;19917;-63
2022/06/27 03:07:23;;;;;;;;;;;;;;;14.32;100.00;91265.72;5013846;28;19968;-65
2022/06/27 03:09:49;;;;;;;;;;;;;;;14.32;100.00;91248.88;5013845;28;19917;-63
2022/06/27 03:12:15;;;;;;;;;;;;;;;14.32;100.00;91257.69;5013671;28;19918;-64
2022/06/27 03:14:41;;;;;;;;;;;;;;;14.28;100.00;91264.81;5013626;28;19918;-64
2022/06/27 03:17:06;;;;;;;;;;;;;;;14.17;100.00;91254.78;5013677;28;19917;-64
2022/06/27 03:19:32;;;;;;;;;;;;;;;14.17;100.00;91262.81;5013694;28;19917;-64
2022/06/27 03:21:57;;;;;;;;;;;;;;;14.24;100.00;91255.06;5013501;28;20319;-64
2022/06/27 03:24:22;;;;;;;;;;;;;;;14.35;100.00;91254.38;5013520;28;19917;-64
2022/06/27 03:26:48;;;;;;;;;;;;;;;14.45;100.00;91255.94;5013507;28;20431;-64
2022/06/27 03:29:13;;;;;;;;;;;;;;;14.55;100.00;91250.22;5013409;28;19917;-64
2022/06/27 03:31:39;;;;;;;;;;;;;;;14.63;100.00;91256.59;5013630;28;20276;-64
2022/06/27 03:34:05;;;;;;;;;;;;;;;14.62;100.00;91255.03;5013525;28;19928;-64
2022/06/27 03:36:30;;;;;;;;;;;;;;;14.68;100.00;91262.59;5013244;28;20009;-64
2022/06/27 03:38:55;;;;;;;;;;;;;;;14.75;100.00;91264.72;5013264;28;19972;-64
2022/06/27 03:41:20;;;;;;;;;;;;;;;14.78;100.00;91255.25;5013517;28;19921;-64
2022/06/27 03:43:46;;;;;;;;;;;;;;;14.88;100.00;91258.34;5013159;28;19917;-64
2022/06/27 03:46:11;;;;;;;;;;;;;;;14.97;100.00;91261.72;5013176;28;19991;-64
2022/06/27 03:51:21;;;;;;;;;;;;;;;15.07;100.00;91270.50;5013039;28;19956;-64
2022/06/27 03:53:46;;;;;;;;;;;;;;;15.22;100.00;91272.59;5013225;28;19917;-64
2022/06/27 03:56:11;;;;;;;;;;;;;;;15.24;100.00;91271.16;5012931;28;20004;-64
2022/06/27 03:58:37;;;;;;;;;;;;;;;15.35;100.00;91270.75;5012999;28;20430;-63
2022/06/27 04:01:03;;;;;;;;;;;;;;;15.51;100.00;91272.50;5012887;28;20383;-64
2022/06/27 04:03:29;;;;;;;;;;;;;;;15.49;100.00;91261.31;5012455;28;20383;-64
2022/06/27 04:05:54;;;;;;;;;;;;;;;15.62;100.00;91275.59;5012687;28;19941;-64
2022/06/27 04:08:19;;;;;;;;;;;;;;;15.78;100.00;91279.22;5012788;28;19921;-64
2022/06/27 04:10:45;;;;;;;;;;;;;;;15.80;100.00;91266.25;5012761;28;19921;-64
2022/06/27 04:13:10;;;;;;;;;;;;;;;15.98;100.00;91266.84;5012611;28;20022;-63
2022/06/27 04:15:35;;;;;;;;;;;;;;;16.10;100.00;91263.41;5012599;28;19924;-63
2022/06/27 04:18:01;;;;;;;;;;;;;;;16.17;100.00;91263.63;5012632;28;19917;-63
2022/06/27 04:20:26;;;;;;;;;;;;;;;16.21;100.00;91275.25;5012628;28;19917;-63
2022/06/27 04:22:51;;;;;;;;;;;;;;;16.24;100.00;91271.91;5012454;28;20426;-63
2022/06/27 04:25:17;;;;;;;;;;;;;;;16.40;100.00;91277.38;5012716;28;19923;-63
2022/06/27 04:27:42;;;;;;;;;;;;;;;16.58;100.00;91272.59;5012462;28;20306;-65
2022/06/27 04:30:09;;;;;;;;;;;;;;;16.78;100.00;91277.09;5012450;28;19939;-65
2022/06/27 04:32:34;;;;;;;;;;;;;;;17.04;100.00;91274.81;5012201;28;20380;-62
2022/06/27 04:35:01;;;;;;;;;;;;;;;17.22;100.00;91269.19;5012417;28;20012;-64
2022/06/27 04:37:27;;;;;;;;;;;;;;;17.38;100.00;91274.63;5012617;28;20020;-65
2022/06/27 04:39:52;;;;;;;;;;;;;;;17.35;100.00;91273.38;5012499;28;20008;-64
2022/06/27 04:42:18;;;;;;;;;;;;;;;17.47;100.00;91264.50;5012117;28;20007;-64
2022/06/27 04:44:45;;;;;;;;;;;;;;;17.60;100.00;91269.50;5012428;28;19917;-64
2022/06/27 04:47:13;;;;;;;;;;;;;;;17.64;100.00;91269.59;5012026;28;19967;-64
2022/06/27 04:49:39;;;;;;;;;;;;;;;17.67;100.00;91263.50;5012060;28;20482;-64
2022/06/27 04:52:06;;;;;;;;;;;;;;;17.76;100.00;91264.19;5012272;28;20004;-64
2022/06/27 04:54:32;;;;;;;;;;;;;;;17.78;100.00;91266.53;5011981;28;19921;-64
2022/06/27 04:56:57;;;;;;;;;;;;;;;17.90;100.00;91264.56;5012079;28;19917;-64
2022/06/27 04:59:23;;;;;;;;;;;;;;;17.86;100.00;91265.59;5012031;28;20375;-64
2022/06/27 05:01:50;;;;;;;;;;;;;;;18.01;100.00;91267.53;5011830;28;20407;-64
2022/06/27 05:04:16;;;;;;;;;;;;;;;18.10;100.00;91249.31;5011825;28;19921;-65
2022/06/27 05:06:41;;;;;;;;;;;;;;;18.18;100.00;91261.84;5011781;28;19921;-64
2022/06/27 05:09:06;;;;;;;;;;;;;;;18.36;100.00;91262.28;5012139;28;19940;-62
2022/06/27 05:11:32;;;;;;;;;;;;;;;18.57;100.00;91267.38;5011769;28;19917;-65
2022/06/27 05:13:57;;;;;;;;;;;;;;;18.81;100.00;91264.53;5012034;28;19921;-65
2022/06/27 05:16:22;;;;;;;;;;;;;;;18.99;100.00;91262.25;5015740;28;20303;-65
2022/06/27 05:18:48;;;;;;;;;;;;;;;19.11;100.00;91274.81;5015862;28;20423;-65
2022/06/27 05:21:13;;;;;;;;;;;;;;;19.33;100.00;91271.44;5015989;28;19917;-65
2022/06/27 05:23:39;;;;;;;;;;;;;;;19.47;100.00;91267.50;5015708;28;20407;-65
2022/06/27 05:26:04;;;;;;;;;;;;;;;19.62;100.00;91275.56;5015823;28;19924;-65
2022/06/27 05:28:30;;;;;;;;;;;;;;;19.75;100.00;91268.09;5015610;28;19932;-63
2022/06/27 05:30:55;;;;;;;;;;;;;;;19.95;100.00;91272.34;5015589;28;19918;-63
2022/06/27 05:33:22;;;;;;;;;;;;;;;19.99;100.00;91275.88;5015576;28;20012;-64
2022/06/27 05:35:48;;;;;;;;;;;;;;;19.78;100.00;91272.78;5015459;28;20426;-64
2022/06/27 05:38:13;;;;;;;;;;;;;;;19.90;100.00;91272.63;5015730;28;19917;-65
2022/06/27 05:40:39;;;;;;;;;;;;;;;19.81;100.00;91273.97;5015445;28;19925;-65
2022/06/27 05:43:08;;;;;;;;;;;;;;;19.83;100.00;91272.47;5015384;28;19917;-64
2022/06/27 05:45:33;;;;;;;;;;;;;;;19.88;100.00;91285.72;5015646;28;19948;-64
2022/06/27 05:48:02;;;;;;;;;;;;;;;20.01;100.00;91279.00;5015472;28;20421;-64
2022/06/27 05:50:28;;;;;;;;;;;;;;;20.21;100.00;91284.41;5015214;28;19932;-64
2022/06/27 05:52:56;;;;;;;;;;;;;;;22.92;95.60;91281.47;5015026;28;20403;-64
2022/06/27 05:55:22;;;;;;;;;;;;;;;25.12;73.41;91286.34;5015241;28;19917;-65
2022/06/27 05:57:48;;;;;;;;;;;;;;;28.20;62.44;91287.75;5015006;28;19978;-65
2022/06/27 06:00:15;;;;;;;;;;;;;;;29.13;56.06;91292.81;5014995;28;20008;-65
2022/06/27 06:02:40;;;;;;;;;;;;;;;29.04;54.09;91298.06;5014882;28;19937;-64
2022/06/27 06:05:09;;;;;;;;;;;;;;;30.92;51.71;91296.63;5014954;28;20345;-65
2022/06/27 06:07:35;;;;;;;;;;;;;;;32.57;46.31;91293.41;5014934;28;19918;-65
2022/06/27 06:10:01;;;;;;;;;;;;;;;33.74;44.66;91297.38;5015098;28;19921;-65
2022/06/27 06:12:26;;;;;;;;;;;;;;;33.89;42.24;91296.50;5014798;28;19917;-65
2022/06/27 06:14:52;;;;;;;;;;;;;;;35.64;39.55;91307.56;5014660;28;20016;-65
2022/06/27 06:17:18;;;;;;;;;;;;;;;34.70;40.31;91300.41;5014581;28;20375;-66
2022/06/27 06:19:43;;;;;;;;;;;;;;;34.70;40.11;91305.94;5014226;28;20502;-66
2022/06/27 06:22:09;;;;;;;;;;;;;;;35.11;40.40;91306.84;5014420;28;19921;-66
2022/06/27 06:24:34;;;;;;;;;;;;;;;35.21;38.58;91304.91;5014427;28;19918;-66
2022/06/27 06:27:00;;;;;;;;;;;;;;;36.12;37.60;91302.47;5014640;28;20474;-66
2022/06/27 06:29:26;;;;;;;;;;;;;;;36.17;38.55;91303.91;5014327;28;20367;-65
2022/06/27 06:31:51;;;;;;;;;;;;;;;34.15;40.96;91308.25;5014203;28;19967;-66
2022/06/27 06:34:16;;;;;;;;;;;;;;;34.14;40.38;91301.19;5014355;28;19940;-65
2022/06/27 06:36:43;;;;;;;;;;;;;;;35.45;38.98;91305.19;5014253;28;20375;-65
2022/06/27 06:39:08;;;;;;;;;;;;;;;36.52;37.40;91302.41;5014420;28;19953;-65
2022/06/27 06:41:34;;;;;;;;;;;;;;;36.08;37.67;91306.63;5014123;28;19961;-65
2022/06/27 06:44:00;;;;;;;;;;;;;;;36.75;36.55;91308.53;5014269;28;19948;-65
2022/06/27 06:46:30;;;;;;;;;;;;;;;35.98;37.04;91309.41;5014275;28;19928;-65
2022/06/27 06:48:58;;;;;;;;;;;;;;;35.08;38.24;91299.47;5014490;28;19921;-65
2022/06/27 06:51:23;;;;;;;;;;;;;;;34.54;39.66;91301.38;5014262;28;19918;-65
2022/06/27 06:53:49;;;;;;;;;;;;;;;35.88;37.73;91312.59;5014112;28;19941;-66
2022/06/27 06:56:14;;;;;;;;;;;;;;;36.16;37.13;91311.44;5013645;28;20624;-65
2022/06/27 06:58:40;;;;;;;;;;;;;;;35.67;39.07;91312.22;5014229;28;19928;-65
2022/06/27 07:01:06;;;;;;;;;;;;;;;34.70;39.32;91308.72;5013952;28;20449;-65
2022/06/27 07:03:33;;;;;;;;;;;;;;;34.54;39.33;91312.44;5014103;28;19976;-64
2022/06/27 07:05:59;;;;;;;;;;;;;;;35.09;37.00;91317.59;5013764;28;19925;-65
2022/06/27 07:08:24;;;;;;;;;;;;;;;36.49;37.09;91328.28;5014072;28;19917;-65
2022/06/27 07:10:51;;;;;;;;;;;;;;;36.83;36.26;91327.22;5012631;28;20020;-65
2022/06/27 07:13:17;;;;;;;;;;;;;;;36.06;37.40;91322.94;5013555;28;19917;-65
2022/06/27 07:15:45;;;;;;;;;;;;;;;36.60;36.55;91327.78;5013592;28;19960;-65
2022/06/27 07:18:12;;;;;;;;;;;;;;;36.85;37.43;91327.50;5013714;28;19917;-65
2022/06/27 07:20:37;;;;;;;;;;;;;;;36.89;35.64;91330.13;5013850;28;19924;-65
2022/06/27 07:23:04;;;;;;;;;;;;;;;36.91;35.84;91327.66;5013385;28;20311;-65
2022/06/27 07:25:30;;;;;;;;;;;;;;;37.17;36.50;91330.84;5013761;28;19932;-65
2022/06/27 07:27:58;;;;;;;;;;;;;;;34.52;39.11;91330.69;5013436;28;19921;-64
2022/06/27 07:30:23;;;;;;;;;;;;;;;34.75;40.42;91330.28;5013410;28;19917;-65
2022/06/27 07:32:48;;;;;;;;;;;;;;;35.69;37.75;91328.38;5013351;28;19921;-65
2022/06/27 07:35:16;;;;;;;;;;;;;;;38.04;35.21;91332.00;5013135;28;20446;-65
2022/06/27 07:37:48;;;;;;;;;;;;;;;37.42;35.37;91332.53;5012752;28;20382;-65
2022/06/27 07:40:14;;;;;;;;;;;;;;;38.45;34.98;91337.94;5013514;28;19921;-64
2022/06/27 07:42:39;;;;;;;;;;;;;;;38.90;33.76;91334.81;5012938;28;20318;-65
2022/06/27 07:45:06;;;;;;;;;;;;;;;38.23;33.92;91338.25;5013152;28;19917;-65
2022/06/27 07:47:31;;;;;;;;;;;;;;;39.14;33.31;91334.03;5013060;28;19917;-64
2022/06/27 07:49:57;;;;;;;;;;;;;;;40.87;30.60;91341.50;5013112;28;19917;-64
2022/06/27 07:52:22;;;;;;;;;;;;;;;38.59;31.41;91331.66;5008337;28;19921;-65
2022/06/27 07:54:48;;;;;;;;;;;;;;;38.45;33.07;91338.69;5012172;28;19918;-64
2022/06/27 07:57:14;;;;;;;;;;;;;;;38.91;33.35;91335.59;5012630;28;19940;-64
2022/06/27 07:59:41;;;;;;;;;;;;;;;38.67;31.54;91332.09;5012453;28;19961;-64
2022/06/27 08:02:07;;;;;;;;;;;;;;;38.68;31.84;91330.84;5012720;28;19918;-64
2022/06/27 08:04:36;;;;;;;;;;;;;;;38.45;31.94;91332.38;5012309;28;19925;-63
2022/06/27 08:07:02;;;;;;;;;;;;;;;37.42;32.01;91330.53;5011950;28;19932;-65
2022/06/27 08:09:29;;;;;;;;;;;;;;;40.07;29.47;91341.66;5012427;28;19918;-64
2022/06/27 08:11:54;;;;;;;;;;;;;;;39.18;30.01;91334.59;5012589;28;19917;-64
2022/06/27 08:14:20;;;;;;;;;;;;;;;37.32;33.19;91333.78;5011463;28;19926;-64
2022/06/27 08:16:51;;;;;;;;;;;;;;;34.37;35.71;91324.13;5012090;28;19922;-63
2022/06/27 08:19:18;;;;;;;;;;;;;;;33.98;35.93;91320.69;5012644;28;20314;-66
2022/06/27 08:21:44;;;;;;;;;;;;;;;33.23;36.10;91331.25;5011963;28;19964;-66
2022/06/27 08:24:16;;;;;;;;;;;;;;;35.16;33.65;91328.38;5012047;28;20756;-66
2022/06/27 08:26:43;;;;;;;;;;;;;;;36.14;34.45;91343.59;5012313;28;19967;-67
2022/06/27 08:29:08;;;;;;;;;;;;;;;37.11;33.53;91330.72;5012165;28;20311;-68
2022/06/27 08:31:34;;;;;;;;;;;;;;;36.34;34.28;91329.34;5012017;28;19924;-67
2022/06/27 08:34:03;;;;;;;;;;;;;;;37.09;32.85;91338.75;5012190;28;20409;-63
2022/06/27 08:36:30;;;;;;;;;;;;;;;36.27;34.28;91338.69;5012151;28;19921;-64
2022/06/27 08:39:01;;;;;;;;;;;;;;;35.39;36.26;91325.16;5011752;28;19976;-64
2022/06/27 08:41:27;;;;;;;;;;;;;;;36.08;34.40;91334.34;5011926;28;20403;-65
2022/06/27 08:43:55;;;;;;;;;;;;;;;37.99;32.29;91327.81;4994273;28;19924;-65
2022/06/27 08:46:20;;;;;;;;;;;;;;;36.52;34.04;91326.56;5012180;28;20011;-65
2022/06/27 08:48:47;;;;;;;;;;;;;;;34.67;35.45;91322.66;5011239;28;19956;-64
2022/06/27 08:51:13;;;;;;;;;;;;;;;31.19;40.94;91321.19;5011561;28;20429;-65
2022/06/27 08:53:39;;;;;;;;;;;;;;;32.08;40.54;91324.59;5011415;28;20004;-67
2022/06/27 08:56:05;;;;;;;;;;;;;;;31.25;41.94;91324.25;5011817;28;19969;-66
2022/06/27 08:58:30;;;;;;;;;;;;;;;31.05;42.27;91328.97;5012021;28;19921;-65
2022/06/27 09:00:56;;;;;;;;;;;;;;;33.19;38.71;91324.31;5011702;28;20338;-65
2022/06/27 09:03:22;;;;;;;;;;;;;;;32.36;39.47;91328.59;5011854;28;20045;-65
2022/06/27 09:05:58;;;;;;;;;;;;;;;34.32;37.54;91327.44;5011572;28;20387;-65
2022/06/27 09:08:25;;;;;;;;;;;;;;;36.24;35.34;91325.75;5011287;28;20307;-65
2022/06/27 09:10:52;;;;;;;;;;;;;;;38.18;32.12;91319.38;5011899;28;20008;-63
2022/06/27 09:13:18;;;;;;;;;;;;;;;38.89;31.62;91327.72;5011500;28;19921;-66
2022/06/27 09:15:58;;;;;;;;;;;;;;;36.73;32.36;91322.09;5011755;28;19913;-65
2022/06/27 09:18:25;;;;;;;;;;;;;;;36.46;34.23;91326.44;5011618;28;20008;-65
2022/06/27 09:20:51;;;;;;;;;;;;;;;38.12;32.35;91322.06;5011692;28;20004;-65
2022/06/27 09:23:53;;;;;;;;;;;;;;;38.49;32.45;91327.38;4994327;28;20360;-66
2022/06/27 09:26:29;;;;;;;;;;;;;;;36.74;33.53;91318.84;4913113;29;19915;-65
2022/06/27 09:28:56;;;;;;;;;;;;;;;37.98;32.54;91317.97;4999327;28;19913;-66
2022/06/27 09:31:25;;;;;;;;;;;;;;;38.22;32.24;91320.78;5011532;28;20383;-66
2022/06/27 09:34:10;;;;;;;;;;;;;;;38.16;32.51;91317.06;5011605;28;19917;-65
2022/06/27 09:36:39;;;;;;;;;;;;;;;38.78;31.89;91321.16;5011461;28;19917;-66
2022/06/27 09:39:07;;;;;;;;;;;;;;;36.41;33.35;91320.72;5011603;28;19913;-65
2022/06/27 09:41:33;;;;;;;;;;;;;;;35.44;33.09;91314.72;5011493;28;20346;-69
2022/06/27 09:44:12;;;;;;;;;;;;;;;33.63;36.89;91322.59;5011587;28;20433;-69
2022/06/27 09:46:42;;;;;;;;;;;;;;;31.37;40.38;91314.53;5011443;28;19913;-68
2022/06/27 09:49:12;;;;;;;;;;;;;;;34.69;35.16;91311.94;5011416;28;20020;-68
2022/06/27 09:51:38;;;;;;;;;;;;;;;34.77;37.76;91319.53;5011276;28;19914;-68
2022/06/27 09:54:09;;;;;;;;;;;;;;;35.41;36.14;91317.19;5011361;28;20355;-69
2022/06/27 09:56:39;;;;;;;;;;;;;;;32.70;38.57;91310.75;5011182;28;20713;-69
2022/06/27 09:59:14;;;;;;;;;;;;;;;33.74;38.05;91323.00;5011479;28;20299;-69
2022/06/27 10:01:41;;;;;;;;;;;;;;;32.16;38.00;91325.16;4996457;28;19924;-69
2022/06/27 10:04:07;;;;;;;;;;;;;;;33.28;37.70;91314.16;5015159;28;20327;-69
2022/06/27 10:06:33;;;;;;;;;;;;;;;32.74;38.23;91308.66;5014811;28;19963;-69
2022/06/27 10:09:00;;;;;;;;;;;;;;;32.60;39.39;91312.59;5014655;28;20059;-69
2022/06/27 10:11:25;;;;;;;;;;;;;;;33.13;37.32;91318.56;5014787;28;19924;-69
2022/06/27 10:14:09;;;;;;;;;;;;;;;33.79;35.83;91314.19;5014768;28;19913;-67
2022/06/27 10:16:48;;;;;;;;;;;;;;;33.46;36.02;91318.41;5014756;28;19913;-69
2022/06/27 10:19:14;;;;;;;;;;;;;;;34.24;35.27;91308.34;5014818;28;19914;-69
2022/06/27 10:21:45;;;;;;;;;;;;;;;32.88;38.63;91307.50;5014626;28;19924;-69
2022/06/27 10:24:19;;;;;;;;;;;;;;;32.36;39.81;91300.28;5014786;28;19921;-68
2022/06/27 10:26:48;;;;;;;;;;;;;;;31.84;40.36;91309.47;5014575;28;19920;-68
2022/06/27 10:29:37;;;;;;;;;;;;;;;33.45;38.52;91308.56;5014414;28;20064;-68
2022/06/27 10:32:04;;;;;;;;;;;;;;;35.29;36.79;91304.19;5014408;28;20311;-69
2022/06/27 10:34:46;;;;;;;;;;;;;;;37.11;33.24;91302.22;5014639;28;19913;-69
2022/06/27 10:37:21;;;;;;;;;;;;;;;35.87;35.90;91305.53;5014693;28;20003;-69
2022/06/27 10:39:46;;;;;;;;;;;;;;;34.30;36.73;91305.00;5014402;28;19975;-69
2022/06/27 10:42:30;;;;;;;;;;;;;;;34.12;37.27;91292.59;5014096;28;19917;-69
2022/06/27 10:45:14;;;;;;;;;;;;;;;36.62;34.27;91305.19;5014129;28;19933;-69
2022/06/27 10:47:39;;;;;;;;;;;;;;;36.54;33.82;91297.16;5014176;28;20062;-69
2022/06/27 10:50:12;;;;;;;;;;;;;;;37.29;33.50;91302.19;5014139;28;19928;-69
2022/06/27 10:52:38;;;;;;;;;;;;;;;35.83;34.90;91300.13;5014021;28;19917;-69
2022/06/27 10:55:19;;;;;;;;;;;;;;;33.82;35.84;91291.19;5013981;28;19914;-69
2022/06/27 10:57:44;;;;;;;;;;;;;;;32.44;38.21;91302.41;5013998;28;19946;-69
2022/06/27 11:00:10;;;;;;;;;;;;;;;35.08;35.88;91303.00;5014051;28;20039;-69
2022/06/27 11:02:36;;;;;;;;;;;;;;;35.70;34.12;91311.28;5013882;28;20322;-69
2022/06/27 11:05:02;;;;;;;;;;;;;;;34.68;35.43;91310.38;5013757;28;19921;-69
2022/06/27 11:07:28;;;;;;;;;;;;;;;35.45;34.65;91305.19;5013970;28;19996;-69
2022/06/27 11:09:53;;;;;;;;;;;;;;;36.30;33.25;91307.31;5013857;28;19920;-70
2022/06/27 11:12:20;;;;;;;;;;;;;;;35.55;33.65;91307.56;5012819;28;20372;-70
2022/06/27 11:14:46;;;;;;;;;;;;;;;32.89;36.86;91298.03;5013612;28;20435;-69
2022/06/27 11:17:29;;;;;;;;;;;;;;;33.86;36.64;91291.09;5013694;28;20000;-69
2022/06/27 11:20:09;;;;;;;;;;;;;;;31.68;38.83;91298.44;5013628;28;19996;-69
2022/06/27 11:22:35;;;;;;;;;;;;;;;33.56;38.16;91286.94;5013445;28;19913;-69
2022/06/27 11:25:01;;;;;;;;;;;;;;;33.93;37.09;91290.88;5013585;28;19948;-69
2022/06/27 11:27:42;;;;;;;;;;;;;;;34.50;34.57;91294.44;5013557;28;19913;-69
2022/06/27 11:32:51;;;;;;;;;;;;;;;32.80;38.85;91284.09;5013430;28;20458;-69
2022/06/27 11:35:17;;;;;;;;;;;;;;;34.49;34.87;91293.69;5013298;28;20007;-68
2022/06/27 11:37:42;;;;;;;;;;;;;;;35.09;34.77;91295.47;5013318;28;20507;-69
2022/06/27 11:40:08;;;;;;;;;;;;;;;35.19;33.54;91299.03;5013328;28;19914;-69
2022/06/27 11:42:34;;;;;;;;;;;;;;;35.68;32.59;91296.38;5013167;28;19921;-69
2022/06/27 11:45:02;;;;;;;;;;;;;;;35.55;32.31;91290.19;5013269;28;20350;-69
2022/06/27 11:47:28;;;;;;;;;;;;;;;35.76;32.42;91292.06;5013081;28;20000;-69
2022/06/27 11:50:03;;;;;;;;;;;;;;;36.51;32.36;91289.78;5013049;28;20008;-70
2022/06/27 11:52:42;;;;;;;;;;;;;;;37.52;31.12;91280.50;5012889;28;19913;-70
2022/06/27 11:55:09;;;;;;;;;;;;;;;36.71;32.72;91286.50;5012942;28;19921;-69
2022/06/27 11:57:35;;;;;;;;;;;;;;;35.96;33.60;91286.91;5012894;28;20382;-69
2022/06/27 12:00:01;;;;;;;;;;;;;;;36.12;33.02;91287.88;5013072;28;20390;-69
2022/06/27 12:02:36;;;;;;;;;;;;;;;35.20;33.72;91290.31;5012760;28;19920;-69
2022/06/27 12:05:06;;;;;;;;;;;;;;;32.20;38.04;91283.78;5012559;28;19929;-69
2022/06/27 12:07:47;;;;;;;;;;;;;;;33.91;36.15;91285.00;5012738;28;19913;-69
2022/06/27 12:10:13;;;;;;;;;;;;;;;35.33;32.40;91288.19;5012640;28;19924;-69
2022/06/27 12:12:43;;;;;;;;;;;;;;;36.88;32.00;91278.66;5012668;28;20025;-70
2022/06/27 12:15:18;;;;;;;;;;;;;;;37.85;30.77;91286.09;5012927;28;20280;-70
2022/06/27 12:17:44;;;;;;;;;;;;;;;39.07;29.87;91281.50;5012692;28;19914;-70
2022/06/27 12:20:09;;;;;;;;;;;;;;;37.60;31.29;91278.94;5012662;28;20063;-69
2022/06/27 12:22:35;;;;;;;;;;;;;;;34.48;35.72;91269.25;5012498;28;19923;-69
2022/06/27 12:25:00;;;;;;;;;;;;;;;35.90;32.72;91277.69;5012428;28;20331;-69
2022/06/27 12:27:26;;;;;;;;;;;;;;;34.37;35.34;91269.63;5012505;28;19967;-69
2022/06/27 12:29:51;;;;;;;;;;;;;;;33.39;37.37;91275.25;5012441;28;19913;-69
2022/06/27 12:32:17;;;;;;;;;;;;;;;32.41;38.28;91264.72;5012275;28;19913;-69
2022/06/27 12:34:42;;;;;;;;;;;;;;;32.50;41.01;91260.53;5012287;28;20387;-69
2022/06/27 12:37:07;;;;;;;;;;;;;;;31.77;40.82;91266.41;5012311;28;19996;-69
2022/06/27 12:39:32;;;;;;;;;;;;;;;30.82;40.81;91258.44;5012053;28;20008;-68
2022/06/27 12:41:58;;;;;;;;;;;;;;;30.17;41.57;91255.44;5012017;28;19913;-68
2022/06/27 12:44:23;;;;;;;;;;;;;;;31.85;39.71;91251.25;5012052;28;19913;-69
2022/06/27 12:46:48;;;;;;;;;;;;;;;32.05;39.69;91258.63;5012102;28;20359;-68
2022/06/27 12:49:14;;;;;;;;;;;;;;;32.66;38.06;91263.22;5012040;28;20007;-69